sensor_id;sensor_type;location;lat;lon;timestamp;P1;durP1;ratioP1;P2;durP2;ratioP2
15655;SDS011;7928;43.614;1.456;2023-07-20T00:01:27;9.70;;;5.57;;
15655;SDS011;7928;43.614;1.456;2023-07-20T00:03:55;9.43;;;4.83;;
15655;SDS011;7928;43.614;1.456;2023-07-20T00:06:22;12.60;;;5.40;;
15655;SDS011;7928;43.614;1.456;2023-07-20T00:08:49;6.80;;;4.67;;
15655;SDS011;7928;43.614;1.456;2023-07-20T00:11:18;8.07;;;5.00;;
15655;SDS011;7928;43.614;1.456;2023-07-20T00:13:45;9.70;;;4.33;;
15655;SDS011;7928;43.614;1.456;2023-07-20T00:16:12;9.07;;;4.93;;
15655;SDS011;7928;43.614;1.456;2023-07-20T00:18:39;7.87;;;4.67;;
15655;SDS011;7928;43.614;1.456;2023-07-20T00:21:06;10.33;;;5.43;;
15655;SDS011;7928;43.614;1.456;2023-07-20T00:23:33;9.20;;;4.80;;
15655;SDS011;7928;43.614;1.456;2023-07-20T00:26:00;6.97;;;4.40;;
15655;SDS011;7928;43.614;1.456;2023-07-20T00:28:29;9.40;;;4.77;;
15655;SDS011;7928;43.614;1.456;2023-07-20T00:30:56;5.47;;;4.30;;
15655;SDS011;7928;43.614;1.456;2023-07-20T00:33:25;8.73;;;4.93;;
15655;SDS011;7928;43.614;1.456;2023-07-20T00:35:52;8.03;;;4.53;;
15655;SDS011;7928;43.614;1.456;2023-07-20T00:38:19;10.27;;;4.90;;
15655;SDS011;7928;43.614;1.456;2023-07-20T00:40:46;8.77;;;4.90;;
15655;SDS011;7928;43.614;1.456;2023-07-20T00:43:14;6.80;;;4.70;;
15655;SDS011;7928;43.614;1.456;2023-07-20T00:45:43;9.10;;;4.57;;
15655;SDS011;7928;43.614;1.456;2023-07-20T00:48:11;6.73;;;4.67;;
15655;SDS011;7928;43.614;1.456;2023-07-20T00:50:39;6.27;;;4.20;;
15655;SDS011;7928;43.614;1.456;2023-07-20T00:53:06;10.63;;;4.90;;
15655;SDS011;7928;43.614;1.456;2023-07-20T00:55:34;9.10;;;5.00;;
15655;SDS011;7928;43.614;1.456;2023-07-20T00:58:01;10.60;;;5.10;;
15655;SDS011;7928;43.614;1.456;2023-07-20T01:00:28;10.43;;;4.80;;
15655;SDS011;7928;43.614;1.456;2023-07-20T01:02:56;7.93;;;4.47;;
15655;SDS011;7928;43.614;1.456;2023-07-20T01:05:25;7.37;;;5.03;;
15655;SDS011;7928;43.614;1.456;2023-07-20T01:07:59;6.47;;;4.53;;
15655;SDS011;7928;43.614;1.456;2023-07-20T01:10:33;6.60;;;4.50;;
15655;SDS011;7928;43.614;1.456;2023-07-20T01:13:06;8.37;;;4.83;;
15655;SDS011;7928;43.614;1.456;2023-07-20T01:15:35;11.20;;;5.00;;
15655;SDS011;7928;43.614;1.456;2023-07-20T01:18:04;6.13;;;4.23;;
15655;SDS011;7928;43.614;1.456;2023-07-20T01:20:32;6.43;;;4.67;;
15655;SDS011;7928;43.614;1.456;2023-07-20T01:26:21;7.33;;;4.57;;
15655;SDS011;7928;43.614;1.456;2023-07-20T01:29:17;6.27;;;4.33;;
15655;SDS011;7928;43.614;1.456;2023-07-20T01:31:59;7.83;;;4.40;;
15655;SDS011;7928;43.614;1.456;2023-07-20T01:34:29;7.90;;;4.90;;
15655;SDS011;7928;43.614;1.456;2023-07-20T01:36:57;7.47;;;4.37;;
15655;SDS011;7928;43.614;1.456;2023-07-20T01:39:25;7.67;;;4.70;;
15655;SDS011;7928;43.614;1.456;2023-07-20T01:41:53;11.63;;;4.90;;
15655;SDS011;7928;43.614;1.456;2023-07-20T01:44:21;7.97;;;5.03;;
15655;SDS011;7928;43.614;1.456;2023-07-20T01:46:48;5.93;;;4.73;;
15655;SDS011;7928;43.614;1.456;2023-07-20T01:49:17;8.40;;;5.30;;
15655;SDS011;7928;43.614;1.456;2023-07-20T01:51:44;5.43;;;4.07;;
15655;SDS011;7928;43.614;1.456;2023-07-20T01:54:11;9.53;;;5.17;;
15655;SDS011;7928;43.614;1.456;2023-07-20T01:56:38;6.73;;;4.60;;
15655;SDS011;7928;43.614;1.456;2023-07-20T01:59:04;7.60;;;4.67;;
15655;SDS011;7928;43.614;1.456;2023-07-20T02:01:31;7.10;;;4.53;;
15655;SDS011;7928;43.614;1.456;2023-07-20T02:03:59;8.23;;;4.43;;
15655;SDS011;7928;43.614;1.456;2023-07-20T02:06:27;7.27;;;4.63;;
15655;SDS011;7928;43.614;1.456;2023-07-20T02:08:54;7.83;;;4.47;;
15655;SDS011;7928;43.614;1.456;2023-07-20T02:11:21;8.97;;;4.60;;
15655;SDS011;7928;43.614;1.456;2023-07-20T02:13:48;7.63;;;4.80;;
15655;SDS011;7928;43.614;1.456;2023-07-20T02:16:15;6.20;;;4.40;;
15655;SDS011;7928;43.614;1.456;2023-07-20T02:18:42;8.77;;;4.60;;
15655;SDS011;7928;43.614;1.456;2023-07-20T02:21:09;6.67;;;4.87;;
15655;SDS011;7928;43.614;1.456;2023-07-20T02:23:37;7.10;;;4.50;;
15655;SDS011;7928;43.614;1.456;2023-07-20T02:26:04;7.20;;;4.50;;
15655;SDS011;7928;43.614;1.456;2023-07-20T02:28:31;7.47;;;4.70;;
15655;SDS011;7928;43.614;1.456;2023-07-20T02:30:58;7.97;;;4.70;;
15655;SDS011;7928;43.614;1.456;2023-07-20T02:33:25;7.00;;;4.37;;
15655;SDS011;7928;43.614;1.456;2023-07-20T02:35:52;10.77;;;5.20;;
15655;SDS011;7928;43.614;1.456;2023-07-20T02:38:20;5.03;;;4.20;;
15655;SDS011;7928;43.614;1.456;2023-07-20T02:40:48;5.80;;;4.50;;
15655;SDS011;7928;43.614;1.456;2023-07-20T02:43:16;7.13;;;4.27;;
15655;SDS011;7928;43.614;1.456;2023-07-20T02:45:43;5.60;;;4.63;;
15655;SDS011;7928;43.614;1.456;2023-07-20T02:48:10;8.23;;;4.70;;
15655;SDS011;7928;43.614;1.456;2023-07-20T02:50:37;6.73;;;4.90;;
15655;SDS011;7928;43.614;1.456;2023-07-20T02:53:04;5.53;;;4.37;;
15655;SDS011;7928;43.614;1.456;2023-07-20T02:55:31;6.67;;;4.00;;
15655;SDS011;7928;43.614;1.456;2023-07-20T02:57:59;6.60;;;4.40;;
15655;SDS011;7928;43.614;1.456;2023-07-20T03:00:26;10.13;;;4.67;;
15655;SDS011;7928;43.614;1.456;2023-07-20T03:02:53;10.00;;;4.60;;
15655;SDS011;7928;43.614;1.456;2023-07-20T03:05:21;5.87;;;4.23;;
15655;SDS011;7928;43.614;1.456;2023-07-20T03:07:50;7.03;;;4.33;;
15655;SDS011;7928;43.614;1.456;2023-07-20T03:10:17;5.80;;;4.53;;
15655;SDS011;7928;43.614;1.456;2023-07-20T03:12:44;8.37;;;4.40;;
15655;SDS011;7928;43.614;1.456;2023-07-20T03:15:12;8.57;;;4.77;;
15655;SDS011;7928;43.614;1.456;2023-07-20T03:17:39;8.83;;;4.90;;
15655;SDS011;7928;43.614;1.456;2023-07-20T03:20:07;6.10;;;4.27;;
15655;SDS011;7928;43.614;1.456;2023-07-20T03:22:35;8.10;;;4.67;;
15655;SDS011;7928;43.614;1.456;2023-07-20T03:25:02;6.13;;;4.57;;
15655;SDS011;7928;43.614;1.456;2023-07-20T03:27:30;8.27;;;5.03;;
15655;SDS011;7928;43.614;1.456;2023-07-20T03:29:57;6.90;;;4.33;;
15655;SDS011;7928;43.614;1.456;2023-07-20T03:32:25;7.90;;;4.40;;
15655;SDS011;7928;43.614;1.456;2023-07-20T03:34:52;6.17;;;4.00;;
15655;SDS011;7928;43.614;1.456;2023-07-20T03:37:19;6.83;;;3.97;;
15655;SDS011;7928;43.614;1.456;2023-07-20T03:39:46;4.53;;;3.80;;
15655;SDS011;7928;43.614;1.456;2023-07-20T03:42:14;5.57;;;3.93;;
15655;SDS011;7928;43.614;1.456;2023-07-20T03:44:41;8.57;;;4.97;;
15655;SDS011;7928;43.614;1.456;2023-07-20T03:47:08;8.43;;;4.00;;
15655;SDS011;7928;43.614;1.456;2023-07-20T03:49:36;6.17;;;3.83;;
15655;SDS011;7928;43.614;1.456;2023-07-20T03:52:04;5.97;;;4.20;;
15655;SDS011;7928;43.614;1.456;2023-07-20T03:54:31;5.10;;;4.43;;
15655;SDS011;7928;43.614;1.456;2023-07-20T03:56:58;7.90;;;3.90;;
15655;SDS011;7928;43.614;1.456;2023-07-20T03:59:25;9.13;;;4.07;;
15655;SDS011;7928;43.614;1.456;2023-07-20T04:01:52;6.63;;;3.93;;
15655;SDS011;7928;43.614;1.456;2023-07-20T04:04:19;6.20;;;3.80;;
15655;SDS011;7928;43.614;1.456;2023-07-20T04:06:48;5.73;;;4.17;;
15655;SDS011;7928;43.614;1.456;2023-07-20T04:09:15;8.77;;;4.20;;
15655;SDS011;7928;43.614;1.456;2023-07-20T04:11:42;5.90;;;3.67;;
15655;SDS011;7928;43.614;1.456;2023-07-20T04:14:09;5.90;;;3.90;;
15655;SDS011;7928;43.614;1.456;2023-07-20T04:16:36;7.90;;;3.43;;
15655;SDS011;7928;43.614;1.456;2023-07-20T04:19:03;4.90;;;3.90;;
15655;SDS011;7928;43.614;1.456;2023-07-20T04:21:30;5.33;;;3.40;;
15655;SDS011;7928;43.614;1.456;2023-07-20T04:23:58;5.83;;;3.40;;
15655;SDS011;7928;43.614;1.456;2023-07-20T04:26:25;6.37;;;3.80;;
15655;SDS011;7928;43.614;1.456;2023-07-20T04:28:52;5.60;;;3.07;;
15655;SDS011;7928;43.614;1.456;2023-07-20T04:31:19;5.43;;;3.63;;
15655;SDS011;7928;43.614;1.456;2023-07-20T04:33:46;4.00;;;3.17;;
15655;SDS011;7928;43.614;1.456;2023-07-20T04:36:13;4.60;;;3.00;;
15655;SDS011;7928;43.614;1.456;2023-07-20T04:38:44;4.13;;;2.90;;
15655;SDS011;7928;43.614;1.456;2023-07-20T04:41:12;7.33;;;3.43;;
15655;SDS011;7928;43.614;1.456;2023-07-20T04:43:40;3.97;;;2.90;;
15655;SDS011;7928;43.614;1.456;2023-07-20T04:46:08;7.53;;;2.80;;
15655;SDS011;7928;43.614;1.456;2023-07-20T04:48:35;6.03;;;3.20;;
15655;SDS011;7928;43.614;1.456;2023-07-20T04:51:03;5.30;;;3.20;;
15655;SDS011;7928;43.614;1.456;2023-07-20T04:53:30;4.80;;;2.90;;
15655;SDS011;7928;43.614;1.456;2023-07-20T04:55:57;5.17;;;2.90;;
15655;SDS011;7928;43.614;1.456;2023-07-20T04:58:25;2.80;;;2.60;;
15655;SDS011;7928;43.614;1.456;2023-07-20T05:00:52;4.60;;;2.40;;
15655;SDS011;7928;43.614;1.456;2023-07-20T05:03:19;4.80;;;2.97;;
15655;SDS011;7928;43.614;1.456;2023-07-20T05:05:46;4.57;;;2.93;;
15655;SDS011;7928;43.614;1.456;2023-07-20T05:08:14;4.80;;;2.40;;
15655;SDS011;7928;43.614;1.456;2023-07-20T05:10:41;3.60;;;2.07;;
15655;SDS011;7928;43.614;1.456;2023-07-20T05:13:08;3.60;;;2.30;;
15655;SDS011;7928;43.614;1.456;2023-07-20T05:15:37;4.47;;;2.50;;
15655;SDS011;7928;43.614;1.456;2023-07-20T05:18:03;4.70;;;2.57;;
15655;SDS011;7928;43.614;1.456;2023-07-20T05:20:31;4.27;;;2.50;;
15655;SDS011;7928;43.614;1.456;2023-07-20T05:22:58;6.57;;;2.33;;
15655;SDS011;7928;43.614;1.456;2023-07-20T05:25:26;3.37;;;2.20;;
15655;SDS011;7928;43.614;1.456;2023-07-20T05:27:53;3.83;;;2.50;;
15655;SDS011;7928;43.614;1.456;2023-07-20T05:30:20;4.03;;;2.50;;
15655;SDS011;7928;43.614;1.456;2023-07-20T05:32:49;5.60;;;2.50;;
15655;SDS011;7928;43.614;1.456;2023-07-20T05:35:18;4.90;;;2.80;;
15655;SDS011;7928;43.614;1.456;2023-07-20T05:37:45;5.17;;;2.10;;
15655;SDS011;7928;43.614;1.456;2023-07-20T05:40:13;4.83;;;2.17;;
15655;SDS011;7928;43.614;1.456;2023-07-20T05:42:44;5.83;;;2.43;;
15655;SDS011;7928;43.614;1.456;2023-07-20T05:45:11;4.03;;;2.60;;
15655;SDS011;7928;43.614;1.456;2023-07-20T05:47:38;5.90;;;2.43;;
15655;SDS011;7928;43.614;1.456;2023-07-20T05:50:07;4.97;;;2.70;;
15655;SDS011;7928;43.614;1.456;2023-07-20T05:52:34;4.10;;;2.10;;
15655;SDS011;7928;43.614;1.456;2023-07-20T05:55:03;5.07;;;2.40;;
15655;SDS011;7928;43.614;1.456;2023-07-20T05:57:31;3.63;;;2.00;;
15655;SDS011;7928;43.614;1.456;2023-07-20T05:59:58;3.20;;;2.30;;
15655;SDS011;7928;43.614;1.456;2023-07-20T06:02:24;4.30;;;2.00;;
15655;SDS011;7928;43.614;1.456;2023-07-20T06:04:51;4.67;;;1.80;;
15655;SDS011;7928;43.614;1.456;2023-07-20T06:07:21;4.40;;;2.23;;
15655;SDS011;7928;43.614;1.456;2023-07-20T06:09:48;7.13;;;2.80;;
15655;SDS011;7928;43.614;1.456;2023-07-20T06:12:15;7.47;;;2.87;;
15655;SDS011;7928;43.614;1.456;2023-07-20T06:14:42;4.73;;;2.47;;
15655;SDS011;7928;43.614;1.456;2023-07-20T06:17:09;4.17;;;1.83;;
15655;SDS011;7928;43.614;1.456;2023-07-20T06:19:36;4.47;;;1.93;;
15655;SDS011;7928;43.614;1.456;2023-07-20T06:22:03;4.13;;;2.20;;
15655;SDS011;7928;43.614;1.456;2023-07-20T06:24:31;3.10;;;2.30;;
15655;SDS011;7928;43.614;1.456;2023-07-20T06:26:58;5.13;;;2.17;;
15655;SDS011;7928;43.614;1.456;2023-07-20T06:29:25;7.23;;;2.43;;
15655;SDS011;7928;43.614;1.456;2023-07-20T06:31:52;3.10;;;2.00;;
15655;SDS011;7928;43.614;1.456;2023-07-20T06:34:19;3.60;;;2.27;;
15655;SDS011;7928;43.614;1.456;2023-07-20T06:36:46;3.00;;;2.30;;
15655;SDS011;7928;43.614;1.456;2023-07-20T06:39:13;7.77;;;3.97;;
15655;SDS011;7928;43.614;1.456;2023-07-20T06:41:42;4.13;;;2.27;;
15655;SDS011;7928;43.614;1.456;2023-07-20T06:44:08;5.30;;;2.73;;
15655;SDS011;7928;43.614;1.456;2023-07-20T06:46:36;4.77;;;3.10;;
15655;SDS011;7928;43.614;1.456;2023-07-20T06:49:05;3.77;;;2.47;;
15655;SDS011;7928;43.614;1.456;2023-07-20T06:51:32;4.73;;;2.17;;
15655;SDS011;7928;43.614;1.456;2023-07-20T06:53:59;3.13;;;1.90;;
15655;SDS011;7928;43.614;1.456;2023-07-20T06:56:29;2.77;;;1.80;;
15655;SDS011;7928;43.614;1.456;2023-07-20T06:58:58;4.40;;;2.20;;
15655;SDS011;7928;43.614;1.456;2023-07-20T07:01:25;4.80;;;2.00;;
15655;SDS011;7928;43.614;1.456;2023-07-20T07:03:52;4.10;;;2.27;;
15655;SDS011;7928;43.614;1.456;2023-07-20T07:06:18;7.97;;;2.20;;
15655;SDS011;7928;43.614;1.456;2023-07-20T07:08:47;4.03;;;2.00;;
15655;SDS011;7928;43.614;1.456;2023-07-20T07:11:14;4.20;;;2.10;;
15655;SDS011;7928;43.614;1.456;2023-07-20T07:13:41;6.07;;;1.97;;
15655;SDS011;7928;43.614;1.456;2023-07-20T07:16:09;3.20;;;1.83;;
15655;SDS011;7928;43.614;1.456;2023-07-20T07:18:36;5.67;;;2.30;;
15655;SDS011;7928;43.614;1.456;2023-07-20T07:21:05;7.17;;;2.67;;
15655;SDS011;7928;43.614;1.456;2023-07-20T07:23:32;4.30;;;1.90;;
15655;SDS011;7928;43.614;1.456;2023-07-20T07:25:59;2.10;;;1.83;;
15655;SDS011;7928;43.614;1.456;2023-07-20T07:28:26;6.07;;;2.20;;
15655;SDS011;7928;43.614;1.456;2023-07-20T07:30:54;2.77;;;2.10;;
15655;SDS011;7928;43.614;1.456;2023-07-20T07:33:24;3.07;;;1.87;;
15655;SDS011;7928;43.614;1.456;2023-07-20T07:35:51;6.83;;;2.43;;
15655;SDS011;7928;43.614;1.456;2023-07-20T07:38:18;4.33;;;2.23;;
15655;SDS011;7928;43.614;1.456;2023-07-20T07:40:46;3.63;;;1.83;;
15655;SDS011;7928;43.614;1.456;2023-07-20T07:43:13;5.93;;;2.20;;
15655;SDS011;7928;43.614;1.456;2023-07-20T07:45:40;3.97;;;1.70;;
15655;SDS011;7928;43.614;1.456;2023-07-20T07:48:07;4.30;;;2.13;;
15655;SDS011;7928;43.614;1.456;2023-07-20T07:50:37;6.27;;;2.13;;
15655;SDS011;7928;43.614;1.456;2023-07-20T07:53:05;3.83;;;1.80;;
15655;SDS011;7928;43.614;1.456;2023-07-20T07:55:33;5.83;;;1.93;;
15655;SDS011;7928;43.614;1.456;2023-07-20T07:58:01;2.20;;;1.73;;
15655;SDS011;7928;43.614;1.456;2023-07-20T08:00:28;4.27;;;1.50;;
15655;SDS011;7928;43.614;1.456;2023-07-20T08:02:55;4.23;;;1.83;;
15655;SDS011;7928;43.614;1.456;2023-07-20T08:05:22;2.10;;;1.67;;
15655;SDS011;7928;43.614;1.456;2023-07-20T08:07:50;2.33;;;1.30;;
15655;SDS011;7928;43.614;1.456;2023-07-20T08:10:18;3.47;;;1.70;;
15655;SDS011;7928;43.614;1.456;2023-07-20T08:12:45;3.87;;;1.70;;
15655;SDS011;7928;43.614;1.456;2023-07-20T08:15:12;3.60;;;1.77;;
15655;SDS011;7928;43.614;1.456;2023-07-20T08:17:40;4.13;;;1.70;;
15655;SDS011;7928;43.614;1.456;2023-07-20T08:20:09;5.17;;;1.60;;
15655;SDS011;7928;43.614;1.456;2023-07-20T08:22:37;3.23;;;1.60;;
15655;SDS011;7928;43.614;1.456;2023-07-20T08:25:06;5.43;;;1.83;;
15655;SDS011;7928;43.614;1.456;2023-07-20T08:27:34;2.80;;;1.60;;
15655;SDS011;7928;43.614;1.456;2023-07-20T08:30:01;3.57;;;1.60;;
15655;SDS011;7928;43.614;1.456;2023-07-20T08:32:29;8.60;;;2.07;;
15655;SDS011;7928;43.614;1.456;2023-07-20T08:34:56;4.00;;;2.03;;
15655;SDS011;7928;43.614;1.456;2023-07-20T08:37:23;7.80;;;1.97;;
15655;SDS011;7928;43.614;1.456;2023-07-20T08:39:50;6.40;;;1.77;;
15655;SDS011;7928;43.614;1.456;2023-07-20T08:42:18;2.63;;;1.60;;
15655;SDS011;7928;43.614;1.456;2023-07-20T08:44:46;5.00;;;1.50;;
15655;SDS011;7928;43.614;1.456;2023-07-20T08:47:16;1.90;;;1.60;;
15655;SDS011;7928;43.614;1.456;2023-07-20T08:49:43;3.87;;;1.60;;
15655;SDS011;7928;43.614;1.456;2023-07-20T08:52:13;3.83;;;1.43;;
15655;SDS011;7928;43.614;1.456;2023-07-20T08:54:41;3.53;;;1.60;;
15655;SDS011;7928;43.614;1.456;2023-07-20T08:57:08;1.93;;;1.50;;
15655;SDS011;7928;43.614;1.456;2023-07-20T08:59:41;4.03;;;1.57;;
15655;SDS011;7928;43.614;1.456;2023-07-20T09:02:10;4.33;;;1.50;;
15655;SDS011;7928;43.614;1.456;2023-07-20T09:04:42;5.27;;;1.80;;
15655;SDS011;7928;43.614;1.456;2023-07-20T09:07:11;3.27;;;1.87;;
15655;SDS011;7928;43.614;1.456;2023-07-20T09:09:39;4.33;;;2.30;;
15655;SDS011;7928;43.614;1.456;2023-07-20T09:12:12;4.13;;;2.10;;
15655;SDS011;7928;43.614;1.456;2023-07-20T09:14:40;2.63;;;1.87;;
15655;SDS011;7928;43.614;1.456;2023-07-20T09:17:12;5.20;;;1.70;;
15655;SDS011;7928;43.614;1.456;2023-07-20T09:19:45;4.63;;;2.40;;
15655;SDS011;7928;43.614;1.456;2023-07-20T09:22:13;4.60;;;1.70;;
15655;SDS011;7928;43.614;1.456;2023-07-20T09:24:40;5.90;;;2.03;;
15655;SDS011;7928;43.614;1.456;2023-07-20T09:27:07;2.43;;;1.80;;
15655;SDS011;7928;43.614;1.456;2023-07-20T09:29:39;4.20;;;2.03;;
15655;SDS011;7928;43.614;1.456;2023-07-20T09:32:17;3.77;;;2.00;;
15655;SDS011;7928;43.614;1.456;2023-07-20T09:34:45;3.80;;;1.83;;
15655;SDS011;7928;43.614;1.456;2023-07-20T09:37:12;4.43;;;1.60;;
15655;SDS011;7928;43.614;1.456;2023-07-20T09:39:43;5.80;;;2.30;;
15655;SDS011;7928;43.614;1.456;2023-07-20T09:42:10;3.50;;;1.83;;
15655;SDS011;7928;43.614;1.456;2023-07-20T09:44:38;3.63;;;1.57;;
15655;SDS011;7928;43.614;1.456;2023-07-20T09:47:07;4.53;;;2.00;;
15655;SDS011;7928;43.614;1.456;2023-07-20T09:49:38;5.45;;;1.70;;
15655;SDS011;7928;43.614;1.456;2023-07-20T09:52:05;2.65;;;1.70;;
15655;SDS011;7928;43.614;1.456;2023-07-20T09:54:34;3.58;;;1.73;;
15655;SDS011;7928;43.614;1.456;2023-07-20T09:57:03;5.72;;;1.50;;
15655;SDS011;7928;43.614;1.456;2023-07-20T09:59:32;3.88;;;1.83;;
15655;SDS011;7928;43.614;1.456;2023-07-20T10:02:00;6.15;;;1.60;;
15655;SDS011;7928;43.614;1.456;2023-07-20T10:04:29;4.50;;;1.90;;
15655;SDS011;7928;43.614;1.456;2023-07-20T10:06:59;3.03;;;1.70;;
15655;SDS011;7928;43.614;1.456;2023-07-20T10:09:31;5.72;;;1.80;;
15655;SDS011;7928;43.614;1.456;2023-07-20T10:12:00;2.88;;;1.60;;
15655;SDS011;7928;43.614;1.456;2023-07-20T10:14:27;6.32;;;1.55;;
15655;SDS011;7928;43.614;1.456;2023-07-20T10:16:59;4.85;;;2.00;;
15655;SDS011;7928;43.614;1.456;2023-07-20T10:19:33;4.90;;;2.13;;
15655;SDS011;7928;43.614;1.456;2023-07-20T10:22:14;5.22;;;1.95;;
15655;SDS011;7928;43.614;1.456;2023-07-20T10:24:46;4.90;;;1.95;;
15655;SDS011;7928;43.614;1.456;2023-07-20T10:27:13;3.03;;;1.65;;
15655;SDS011;7928;43.614;1.456;2023-07-20T10:29:41;5.65;;;1.80;;
15655;SDS011;7928;43.614;1.456;2023-07-20T10:32:08;4.85;;;2.00;;
15655;SDS011;7928;43.614;1.456;2023-07-20T10:34:37;3.75;;;2.13;;
15655;SDS011;7928;43.614;1.456;2023-07-20T10:37:04;2.95;;;1.60;;
15655;SDS011;7928;43.614;1.456;2023-07-20T10:39:32;5.07;;;1.98;;
15655;SDS011;7928;43.614;1.456;2023-07-20T10:42:00;4.28;;;1.73;;
15655;SDS011;7928;43.614;1.456;2023-07-20T10:44:28;6.03;;;1.88;;
15655;SDS011;7928;43.614;1.456;2023-07-20T10:46:59;6.68;;;2.33;;
15655;SDS011;7928;43.614;1.456;2023-07-20T10:49:26;3.70;;;2.40;;
15655;SDS011;7928;43.614;1.456;2023-07-20T10:51:58;7.72;;;2.42;;
15655;SDS011;7928;43.614;1.456;2023-07-20T10:54:48;5.05;;;2.10;;
15655;SDS011;7928;43.614;1.456;2023-07-20T10:57:22;4.97;;;2.03;;
15655;SDS011;7928;43.614;1.456;2023-07-20T10:59:51;2.97;;;1.65;;
15655;SDS011;7928;43.614;1.456;2023-07-20T11:02:18;2.55;;;1.67;;
15655;SDS011;7928;43.614;1.456;2023-07-20T11:04:46;5.10;;;2.00;;
15655;SDS011;7928;43.614;1.456;2023-07-20T11:10:12;4.82;;;2.00;;
15655;SDS011;7928;43.614;1.456;2023-07-20T11:12:40;4.32;;;1.75;;
15655;SDS011;7928;43.614;1.456;2023-07-20T11:15:07;3.58;;;1.83;;
15655;SDS011;7928;43.614;1.456;2023-07-20T11:17:35;4.18;;;2.35;;
15655;SDS011;7928;43.614;1.456;2023-07-20T11:20:03;2.72;;;2.10;;
15655;SDS011;7928;43.614;1.456;2023-07-20T11:22:31;4.60;;;2.03;;
15655;SDS011;7928;43.614;1.456;2023-07-20T11:25:00;3.58;;;2.35;;
15655;SDS011;7928;43.614;1.456;2023-07-20T11:27:28;2.83;;;2.05;;
15655;SDS011;7928;43.614;1.456;2023-07-20T11:29:55;4.32;;;2.08;;
15655;SDS011;7928;43.614;1.456;2023-07-20T11:32:22;2.60;;;2.10;;
15655;SDS011;7928;43.614;1.456;2023-07-20T11:34:50;3.90;;;1.90;;
15655;SDS011;7928;43.614;1.456;2023-07-20T11:37:17;5.95;;;2.40;;
15655;SDS011;7928;43.614;1.456;2023-07-20T11:39:44;2.83;;;1.73;;
15655;SDS011;7928;43.614;1.456;2023-07-20T11:42:12;3.95;;;2.10;;
15655;SDS011;7928;43.614;1.456;2023-07-20T11:44:40;2.72;;;1.90;;
15655;SDS011;7928;43.614;1.456;2023-07-20T11:47:08;3.13;;;1.52;;
15655;SDS011;7928;43.614;1.456;2023-07-20T11:49:36;3.47;;;1.70;;
15655;SDS011;7928;43.614;1.456;2023-07-20T11:52:04;3.35;;;1.60;;
15655;SDS011;7928;43.614;1.456;2023-07-20T11:54:33;5.20;;;2.33;;
15655;SDS011;7928;43.614;1.456;2023-07-20T11:57:01;2.55;;;1.92;;
15655;SDS011;7928;43.614;1.456;2023-07-20T11:59:29;3.63;;;2.00;;
15655;SDS011;7928;43.614;1.456;2023-07-20T12:01:57;3.70;;;1.90;;
15655;SDS011;7928;43.614;1.456;2023-07-20T12:04:25;3.72;;;2.20;;
15655;SDS011;7928;43.614;1.456;2023-07-20T12:06:53;2.75;;;1.80;;
15655;SDS011;7928;43.614;1.456;2023-07-20T12:09:20;2.45;;;2.17;;
15655;SDS011;7928;43.614;1.456;2023-07-20T12:11:49;3.55;;;2.00;;
15655;SDS011;7928;43.614;1.456;2023-07-20T12:14:16;2.78;;;1.98;;
15655;SDS011;7928;43.614;1.456;2023-07-20T12:16:51;3.00;;;1.98;;
15655;SDS011;7928;43.614;1.456;2023-07-20T12:19:20;2.03;;;1.63;;
15655;SDS011;7928;43.614;1.456;2023-07-20T12:21:47;2.78;;;1.83;;
15655;SDS011;7928;43.614;1.456;2023-07-20T12:24:14;5.53;;;1.90;;
15655;SDS011;7928;43.614;1.456;2023-07-20T12:26:41;2.53;;;1.80;;
15655;SDS011;7928;43.614;1.456;2023-07-20T12:29:08;3.17;;;1.58;;
15655;SDS011;7928;43.614;1.456;2023-07-20T12:31:36;2.65;;;2.08;;
15655;SDS011;7928;43.614;1.456;2023-07-20T12:34:04;3.53;;;1.95;;
15655;SDS011;7928;43.614;1.456;2023-07-20T12:36:33;2.58;;;2.17;;
15655;SDS011;7928;43.614;1.456;2023-07-20T12:39:01;2.47;;;1.70;;
15655;SDS011;7928;43.614;1.456;2023-07-20T12:41:28;7.40;;;1.73;;
15655;SDS011;7928;43.614;1.456;2023-07-20T12:43:56;3.15;;;2.00;;
15655;SDS011;7928;43.614;1.456;2023-07-20T12:46:23;4.93;;;1.83;;
15655;SDS011;7928;43.614;1.456;2023-07-20T12:48:51;4.13;;;1.92;;
15655;SDS011;7928;43.614;1.456;2023-07-20T12:51:20;3.63;;;1.85;;
15655;SDS011;7928;43.614;1.456;2023-07-20T12:53:47;3.83;;;2.20;;
15655;SDS011;7928;43.614;1.456;2023-07-20T12:56:14;3.35;;;2.13;;
15655;SDS011;7928;43.614;1.456;2023-07-20T12:58:41;2.33;;;1.88;;
15655;SDS011;7928;43.614;1.456;2023-07-20T13:01:08;5.93;;;1.90;;
15655;SDS011;7928;43.614;1.456;2023-07-20T13:03:35;5.60;;;1.85;;
15655;SDS011;7928;43.614;1.456;2023-07-20T13:06:02;4.45;;;2.30;;
15655;SDS011;7928;43.614;1.456;2023-07-20T13:08:30;2.80;;;2.35;;
15655;SDS011;7928;43.614;1.456;2023-07-20T13:10:57;3.22;;;2.05;;
15655;SDS011;7928;43.614;1.456;2023-07-20T13:13:25;3.28;;;2.15;;
15655;SDS011;7928;43.614;1.456;2023-07-20T13:15:52;2.25;;;2.03;;
15655;SDS011;7928;43.614;1.456;2023-07-20T13:18:20;4.07;;;2.45;;
15655;SDS011;7928;43.614;1.456;2023-07-20T13:20:47;4.13;;;2.20;;
15655;SDS011;7928;43.614;1.456;2023-07-20T13:23:14;4.00;;;2.17;;
15655;SDS011;7928;43.614;1.456;2023-07-20T13:25:42;3.30;;;2.13;;
15655;SDS011;7928;43.614;1.456;2023-07-20T13:28:09;3.67;;;2.20;;
15655;SDS011;7928;43.614;1.456;2023-07-20T13:30:36;5.50;;;2.10;;
15655;SDS011;7928;43.614;1.456;2023-07-20T13:33:03;2.33;;;2.08;;
15655;SDS011;7928;43.614;1.456;2023-07-20T13:35:30;3.70;;;2.25;;
15655;SDS011;7928;43.614;1.456;2023-07-20T13:37:57;3.40;;;2.40;;
15655;SDS011;7928;43.614;1.456;2023-07-20T13:40:24;6.13;;;2.40;;
15655;SDS011;7928;43.614;1.456;2023-07-20T13:42:52;2.25;;;2.05;;
15655;SDS011;7928;43.614;1.456;2023-07-20T13:45:19;3.05;;;1.90;;
15655;SDS011;7928;43.614;1.456;2023-07-20T13:47:47;3.03;;;1.80;;
15655;SDS011;7928;43.614;1.456;2023-07-20T13:50:14;4.03;;;2.53;;
15655;SDS011;7928;43.614;1.456;2023-07-20T13:52:41;2.22;;;2.00;;
15655;SDS011;7928;43.614;1.456;2023-07-20T13:55:08;3.38;;;2.13;;
15655;SDS011;7928;43.614;1.456;2023-07-20T13:57:35;3.60;;;2.30;;
15655;SDS011;7928;43.614;1.456;2023-07-20T14:00:04;7.10;;;2.15;;
15655;SDS011;7928;43.614;1.456;2023-07-20T14:02:33;2.55;;;2.35;;
15655;SDS011;7928;43.614;1.456;2023-07-20T14:05:01;3.30;;;2.20;;
15655;SDS011;7928;43.614;1.456;2023-07-20T14:07:28;3.17;;;2.10;;
15655;SDS011;7928;43.614;1.456;2023-07-20T14:09:55;2.28;;;2.05;;
15655;SDS011;7928;43.614;1.456;2023-07-20T14:12:22;4.03;;;2.13;;
15655;SDS011;7928;43.614;1.456;2023-07-20T14:14:49;2.53;;;1.70;;
15655;SDS011;7928;43.614;1.456;2023-07-20T14:17:18;3.42;;;2.13;;
15655;SDS011;7928;43.614;1.456;2023-07-20T14:19:45;2.92;;;1.92;;
15655;SDS011;7928;43.614;1.456;2023-07-20T14:22:12;6.25;;;2.30;;
15655;SDS011;7928;43.614;1.456;2023-07-20T14:24:39;4.80;;;2.28;;
15655;SDS011;7928;43.614;1.456;2023-07-20T14:27:06;4.38;;;2.00;;
15655;SDS011;7928;43.614;1.456;2023-07-20T14:29:33;2.85;;;2.08;;
15655;SDS011;7928;43.614;1.456;2023-07-20T14:32:01;2.20;;;1.80;;
15655;SDS011;7928;43.614;1.456;2023-07-20T14:34:32;3.22;;;2.75;;
15655;SDS011;7928;43.614;1.456;2023-07-20T14:36:59;5.28;;;2.20;;
15655;SDS011;7928;43.614;1.456;2023-07-20T14:39:26;3.65;;;2.15;;
15655;SDS011;7928;43.614;1.456;2023-07-20T14:41:53;3.83;;;2.05;;
15655;SDS011;7928;43.614;1.456;2023-07-20T14:44:20;2.50;;;2.05;;
15655;SDS011;7928;43.614;1.456;2023-07-20T14:46:47;3.38;;;2.20;;
15655;SDS011;7928;43.614;1.456;2023-07-20T14:49:14;2.22;;;2.03;;
15655;SDS011;7928;43.614;1.456;2023-07-20T14:51:43;5.35;;;2.22;;
15655;SDS011;7928;43.614;1.456;2023-07-20T14:54:12;4.75;;;2.40;;
15655;SDS011;7928;43.614;1.456;2023-07-20T14:56:39;3.33;;;2.28;;
15655;SDS011;7928;43.614;1.456;2023-07-20T14:59:15;2.78;;;2.22;;
15655;SDS011;7928;43.614;1.456;2023-07-20T15:01:42;5.25;;;2.20;;
15655;SDS011;7928;43.614;1.456;2023-07-20T15:04:11;6.95;;;2.50;;
15655;SDS011;7928;43.614;1.456;2023-07-20T15:06:38;3.47;;;1.90;;
15655;SDS011;7928;43.614;1.456;2023-07-20T15:09:06;4.97;;;2.05;;
15655;SDS011;7928;43.614;1.456;2023-07-20T15:11:34;2.95;;;2.10;;